createdAt,value
2016-09-18T04:00:40.666Z,1018.2
2016-09-18T04:01:06.203Z,1018.18
2016-09-18T04:01:31.801Z,1018.25
2016-09-18T04:01:57.361Z,1018.23
2016-09-18T04:02:22.918Z,1018.26
2016-09-18T04:02:48.464Z,1018.28
2016-09-18T04:03:14.191Z,1018.26
2016-09-18T04:03:39.731Z,1018.26
2016-09-18T04:04:05.361Z,1018.25
2016-09-18T04:04:30.928Z,1018.23
2016-09-18T04:04:56.493Z,1018.19
2016-09-18T04:05:22.066Z,1018.25
2016-09-18T04:05:47.613Z,1018.24
2016-09-18T04:06:13.904Z,1018.22
2016-09-18T04:06:39.518Z,1018.24
2016-09-18T04:07:05.102Z,1018.28
2016-09-18T04:07:30.660Z,1018.24
2016-09-18T04:07:56.228Z,1018.23
2016-09-18T04:09:09.702Z,1018.23
2016-09-18T04:09:35.285Z,1018.29
2016-09-18T04:10:00.845Z,1018.29
2016-09-18T04:10:26.484Z,1018.29
2016-09-18T04:10:52.058Z,1018.3
2016-09-18T04:11:17.624Z,1018.25
2016-09-18T04:11:43.196Z,1018.25
2016-09-18T04:12:08.836Z,1018.25
2016-09-18T04:12:34.421Z,1018.26
2016-09-18T04:13:00.016Z,1018.26
2016-09-18T04:13:25.592Z,1018.26
2016-09-18T04:13:51.152Z,1018.29
2016-09-18T04:14:16.715Z,1018.29
2016-09-18T04:14:42.260Z,1018.29
2016-09-18T04:15:07.835Z,1018.28
2016-09-18T04:15:33.444Z,1018.24
2016-09-18T04:15:59.013Z,1018.28
2016-09-18T04:16:24.588Z,1018.29
2016-09-18T04:16:50.160Z,1018.27
2016-09-18T04:17:15.717Z,1018.31
2016-09-18T04:17:41.296Z,1018.27
2016-09-18T04:18:06.863Z,1018.27
2016-09-18T04:18:32.423Z,1018.28
2016-09-18T04:18:57.981Z,1018.27
2016-09-18T04:19:23.618Z,1018.27
2016-09-18T04:19:49.176Z,1018.3
2016-09-18T04:20:14.790Z,1018.26
2016-09-18T04:20:40.344Z,1018.24
2016-09-18T04:21:06.005Z,1018.25
2016-09-18T04:21:31.615Z,1018.27
2016-09-18T04:21:57.175Z,1018.26
2016-09-18T04:22:22.735Z,1018.28
2016-09-18T04:22:48.335Z,1018.24
2016-09-18T04:23:13.839Z,1018.26
2016-09-18T04:23:39.397Z,1018.2
2016-09-18T04:24:04.943Z,1018.23
2016-09-18T04:24:30.521Z,1018.23
2016-09-18T04:24:56.091Z,1018.22
2016-09-18T04:25:21.661Z,1018.25
2016-09-18T04:25:47.210Z,1018.25
2016-09-18T04:26:12.792Z,1018.24
2016-09-18T04:26:38.365Z,1018.24
2016-09-18T04:27:03.912Z,1018.24
2016-09-18T04:27:29.461Z,1018.24
2016-09-18T04:27:55.023Z,1018.26
2016-09-18T04:28:20.633Z,1018.24
2016-09-18T04:28:46.207Z,1018.24
2016-09-18T04:29:11.773Z,1018.29
2016-09-18T04:29:37.342Z,1018.27
2016-09-18T04:30:02.907Z,1018.25
2016-09-18T04:30:28.525Z,1018.24
2016-09-18T04:30:54.131Z,1018.23
2016-09-18T04:31:19.705Z,1018.25
2016-09-18T04:31:45.248Z,1018.24
2016-09-18T04:32:10.834Z,1018.2
2016-09-18T04:32:36.412Z,1018.22
2016-09-18T04:33:01.971Z,1018.22
2016-09-18T04:33:27.552Z,1018.23
2016-09-18T04:33:53.123Z,1018.28
2016-09-18T04:34:18.688Z,1018.24
2016-09-18T04:34:44.264Z,1018.26
2016-09-18T04:35:09.835Z,1018.17
2016-09-18T04:35:35.402Z,1018.25
2016-09-18T04:36:01.104Z,1018.24
2016-09-18T04:36:26.663Z,1018.23
2016-09-18T04:36:52.313Z,1018.21
2016-09-18T04:37:17.994Z,1018.22
2016-09-18T04:37:43.558Z,1018.2
2016-09-18T04:38:09.108Z,1018.21
2016-09-18T04:38:34.703Z,1018.21
2016-09-18T04:39:00.287Z,1018.2
2016-09-18T04:39:25.871Z,1018.21
2016-09-18T04:39:51.439Z,1018.22
2016-09-18T04:40:17.004Z,1018.21
2016-09-18T04:40:42.564Z,1018.23
2016-09-18T04:41:08.122Z,1018.24
2016-09-18T04:41:33.686Z,1018.24
2016-09-18T04:41:59.255Z,1018.22
2016-09-18T04:42:24.998Z,1018.27
2016-09-18T04:42:50.545Z,1018.28
2016-09-18T04:43:16.109Z,1018.26
2016-09-18T04:43:41.703Z,1018.25
2016-09-18T04:44:07.322Z,1018.28
2016-09-18T04:44:32.912Z,1018.27
2016-09-18T04:44:58.487Z,1018.24
2016-09-18T04:45:24.065Z,1018.32
2016-09-18T04:45:49.677Z,1018.31
2016-09-18T04:46:15.299Z,1018.29
2016-09-18T04:46:40.994Z,1018.31
2016-09-18T04:47:06.722Z,1018.31
2016-09-18T04:47:32.276Z,1018.28
2016-09-18T04:47:57.842Z,1018.28
2016-09-18T04:49:06.205Z,1018.28
2016-09-18T04:49:31.755Z,1018.31
2016-09-18T04:49:57.323Z,1018.32
2016-09-18T04:50:22.883Z,1018.32
2016-09-18T04:50:48.454Z,1018.32
2016-09-18T04:51:14.025Z,1018.3
2016-09-18T04:51:39.587Z,1018.36
2016-09-18T04:52:05.142Z,1018.31
2016-09-18T04:52:30.712Z,1018.33
2016-09-18T04:52:56.278Z,1018.38
2016-09-18T04:53:21.844Z,1018.31
2016-09-18T04:53:47.424Z,1018.33
2016-09-18T05:13:26.157Z,1018.51
2016-09-18T05:13:51.720Z,1018.55
2016-09-18T05:14:17.452Z,1018.53
2016-09-18T05:14:43.010Z,1018.52
2016-09-18T06:48:14.343Z,1018.8
2016-09-18T06:48:39.899Z,1018.8
2016-09-18T06:49:05.564Z,1018.79
2016-09-18T06:50:08.710Z,1018.78
2016-09-18T06:50:34.298Z,1018.8
2016-09-18T06:50:59.847Z,1018.75
2016-09-18T06:51:25.403Z,1018.8
2016-09-18T06:51:50.995Z,1018.76
2016-09-18T06:52:16.706Z,1018.8
2016-09-18T06:52:42.441Z,1018.79
2016-09-18T06:53:07.992Z,1018.81
2016-09-18T06:53:33.566Z,1018.77
2016-09-18T06:53:59.205Z,1018.8
2016-09-18T06:54:24.795Z,1018.78
2016-09-18T06:54:50.362Z,1018.81
2016-09-18T06:55:15.955Z,1018.78
2016-09-18T06:57:12.542Z,1018.82
2016-09-18T06:57:38.154Z,1018.83
2016-09-18T06:58:03.722Z,1018.8
2016-09-18T06:58:29.369Z,1018.83
2016-09-18T06:58:54.914Z,1018.85
2016-09-18T06:59:20.508Z,1018.86
2016-09-18T06:59:46.119Z,1018.82
2016-09-18T07:00:11.745Z,1018.82
2016-09-18T07:00:37.306Z,1018.84
2016-09-18T07:01:02.865Z,1018.82
2016-09-18T07:01:28.428Z,1018.86
2016-09-18T07:01:53.995Z,1018.84
2016-09-18T07:02:19.617Z,1018.82
2016-09-18T07:02:45.177Z,1018.8
2016-09-18T07:03:10.719Z,1018.8
2016-09-18T07:03:36.279Z,1018.82
2016-09-18T07:04:01.839Z,1018.84
2016-09-18T07:04:27.417Z,1018.82
2016-09-18T07:04:52.982Z,1018.8
2016-09-18T07:06:06.409Z,1018.82
2016-09-18T07:06:32.007Z,1018.76
2016-09-18T07:06:57.567Z,1018.79
2016-09-18T07:07:23.119Z,1018.74
2016-09-18T07:07:48.686Z,1018.72
2016-09-18T07:08:14.252Z,1018.73
2016-09-18T07:08:39.828Z,1018.74
2016-09-18T07:09:05.415Z,1018.75
2016-09-18T07:09:30.973Z,1018.75
2016-09-18T07:09:56.665Z,1018.72
2016-09-18T07:10:22.242Z,1018.72
2016-09-18T07:10:47.826Z,1018.75
2016-09-18T07:11:13.506Z,1018.73
2016-09-18T07:11:39.065Z,1018.77
2016-09-18T07:12:04.619Z,1018.8
2016-09-18T07:12:30.282Z,1018.78
2016-09-18T07:12:55.866Z,1018.77
2016-09-18T07:13:21.426Z,1018.76
2016-09-18T07:13:46.996Z,1018.74
2016-09-18T07:14:12.586Z,1018.79
2016-09-18T07:14:38.142Z,1018.75
2016-09-18T07:15:03.715Z,1018.75
2016-09-18T09:43:28.780Z,1018.5
2016-09-18T09:43:54.527Z,1018.42
2016-09-18T09:44:20.078Z,1018.41
2016-09-18T09:44:45.746Z,1018.49
2016-09-18T09:45:11.301Z,1018.44
2016-09-18T09:45:36.893Z,1018.46
2016-09-18T09:46:02.473Z,1018.47
2016-09-18T09:46:28.152Z,1018.46
2016-09-18T09:46:53.856Z,1018.41
2016-09-18T09:47:19.423Z,1018.49
2016-09-18T09:47:45.078Z,1018.43
2016-09-18T09:48:10.644Z,1018.42
2016-09-18T09:48:36.216Z,1018.44
2016-09-18T09:49:01.759Z,1018.4
2016-09-18T09:49:27.324Z,1018.46
2016-09-18T09:49:52.885Z,1018.48
2016-09-18T09:50:18.615Z,1018.48
2016-09-18T09:50:44.170Z,1018.43
2016-09-18T09:51:09.771Z,1018.43
2016-09-18T09:51:35.345Z,1018.46
2016-09-18T09:52:00.910Z,1018.46
2016-09-18T09:52:26.475Z,1018.46
2016-09-18T09:52:52.057Z,1018.52
2016-09-18T09:53:17.687Z,1018.44
2016-09-18T09:53:43.237Z,1018.47
2016-09-18T09:54:08.801Z,1018.48
2016-09-18T09:54:34.390Z,1018.45
2016-09-18T09:54:59.977Z,1018.51
2016-09-18T09:55:25.543Z,1018.49
2016-09-18T09:55:51.147Z,1018.54
2016-09-18T09:56:16.734Z,1018.52
2016-09-18T09:56:42.470Z,1018.5
2016-09-18T09:57:08.113Z,1018.52
2016-09-18T09:57:33.727Z,1018.48
2016-09-18T09:57:59.345Z,1018.48
2016-09-18T09:58:24.921Z,1018.5
2016-09-18T09:58:50.477Z,1018.5
2016-09-18T09:59:16.057Z,1018.49
2016-09-18T09:59:41.672Z,1018.49
2016-09-18T10:00:07.234Z,1018.5
2016-09-18T10:00:32.863Z,1018.5
2016-09-18T10:00:58.428Z,1018.47
2016-09-18T10:01:24.016Z,1018.49
2016-09-18T10:01:49.604Z,1018.47
2016-09-18T10:02:15.204Z,1018.52
2016-09-18T10:02:40.781Z,1018.42
2016-09-18T10:03:06.357Z,1018.43
2016-09-18T10:03:31.911Z,1018.43
2016-09-18T10:03:57.482Z,1018.46
2016-09-18T10:04:23.096Z,1018.44
2016-09-18T10:04:48.714Z,1018.51
2016-09-18T10:05:14.294Z,1018.43
2016-09-18T10:05:39.924Z,1018.49
2016-09-18T10:06:05.484Z,1018.49
2016-09-18T10:06:31.103Z,1018.45
2016-09-18T10:06:56.680Z,1018.43
2016-09-18T10:07:22.253Z,1018.44
2016-09-18T10:07:47.824Z,1018.42
2016-09-18T10:08:13.458Z,1018.42
2016-09-18T10:08:39.116Z,1018.43
2016-09-18T10:09:04.697Z,1018.4
2016-09-18T10:09:30.357Z,1018.44
2016-09-18T10:09:55.947Z,1018.44
2016-09-18T10:10:21.514Z,1018.45
2016-09-18T10:10:47.105Z,1018.45
2016-09-18T10:11:12.667Z,1018.47
2016-09-18T10:11:38.243Z,1018.43
2016-09-18T10:12:03.842Z,1018.43
2016-09-18T10:12:29.496Z,1018.42
2016-09-18T10:12:55.095Z,1018.43
2016-09-18T10:13:20.661Z,1018.48
2016-09-18T10:13:46.236Z,1018.43
2016-09-18T10:14:11.945Z,1018.48
2016-09-18T10:14:37.533Z,1018.44
2016-09-18T10:15:03.092Z,1018.49
2016-09-18T10:15:28.666Z,1018.52
2016-09-18T10:15:54.361Z,1018.42
2016-09-18T10:16:19.944Z,1018.53
2016-09-18T10:16:45.513Z,1018.4
2016-09-18T10:17:11.163Z,1018.44
2016-09-18T10:17:36.729Z,1018.45
2016-09-18T10:18:02.323Z,1018.44
2016-09-18T10:18:27.977Z,1018.48
2016-09-18T10:18:53.641Z,1018.49
2016-09-18T10:19:19.247Z,1018.43
2016-09-18T10:19:45.007Z,1018.43
2016-09-18T10:20:10.562Z,1018.44
2016-09-18T10:20:36.132Z,1018.45
2016-09-18T10:21:01.714Z,1018.5
2016-09-18T10:21:27.280Z,1018.48
2016-09-18T10:21:52.868Z,1018.47
2016-09-18T10:22:18.488Z,1018.49
2016-09-18T10:23:16.567Z,1018.5
2016-09-18T10:23:42.151Z,1018.5
2016-09-18T10:24:07.738Z,1018.5
2016-09-18T10:24:33.314Z,1018.48
2016-09-18T10:24:58.866Z,1018.48
2016-09-18T10:25:24.430Z,1018.49
2016-09-18T10:25:50.004Z,1018.48
2016-09-18T10:26:15.539Z,1018.46
2016-09-18T10:26:41.099Z,1018.49
2016-09-18T10:27:06.659Z,1018.52
2016-09-18T10:27:32.233Z,1018.52
2016-09-18T10:27:57.767Z,1018.48
2016-09-18T10:28:23.339Z,1018.48
2016-09-18T10:28:48.961Z,1018.48
2016-09-18T10:29:14.541Z,1018.48
2016-09-18T10:29:40.116Z,1018.5
2016-09-18T10:30:05.687Z,1018.38
2016-09-18T10:30:31.262Z,1018.44
2016-09-18T10:30:56.823Z,1018.51
2016-09-18T10:31:22.383Z,1018.42
2016-09-18T10:31:47.918Z,1018.46
2016-09-18T10:32:13.555Z,1018.44
2016-09-18T10:32:39.144Z,1018.42
2016-09-18T10:33:04.746Z,1018.45
2016-09-18T10:33:30.327Z,1018.44
2016-09-18T10:33:55.871Z,1018.43
2016-09-18T10:35:14.393Z,1018.4
2016-09-18T10:35:39.950Z,1018.39
2016-09-18T10:36:05.545Z,1018.43
2016-09-18T10:36:31.103Z,1018.46
2016-09-18T10:36:56.655Z,1018.47
2016-09-18T10:37:22.210Z,1018.43
2016-09-18T10:37:47.783Z,1018.4
2016-09-18T10:38:13.331Z,1018.39
2016-09-18T10:38:38.895Z,1018.38
2016-09-18T10:39:04.457Z,1018.43
2016-09-18T10:39:30.029Z,1018.43
2016-09-18T10:39:55.593Z,1018.44
2016-09-18T10:40:21.156Z,1018.35
2016-09-18T10:40:46.764Z,1018.34
2016-09-18T10:41:12.354Z,1018.39
2016-09-18T10:41:38.045Z,1018.4
2016-09-18T10:42:03.606Z,1018.4
2016-09-18T10:42:29.187Z,1018.37
2016-09-18T10:42:54.804Z,1018.4
2016-09-18T10:43:20.377Z,1018.38
2016-09-18T10:43:45.959Z,1018.35
2016-09-18T10:44:11.565Z,1018.33
2016-09-18T10:45:09.688Z,1018.31
2016-09-18T10:45:35.256Z,1018.35
2016-09-18T10:46:48.750Z,1018.38
2016-09-18T10:47:14.329Z,1018.42
2016-09-18T10:48:12.398Z,1018.38
2016-09-18T10:48:40.483Z,1018.37
2016-09-18T10:50:45.463Z,1018.37
2016-09-18T10:51:11.038Z,1018.39
2016-09-18T10:51:36.607Z,1018.37
2016-09-18T10:52:02.175Z,1018.38
2016-09-18T10:52:27.720Z,1018.34
2016-09-18T10:52:53.303Z,1018.42
2016-09-18T10:53:18.853Z,1018.41
2016-09-18T10:53:44.441Z,1018.39
2016-09-18T10:54:10.017Z,1018.45
2016-09-18T10:54:35.587Z,1018.35
2016-09-18T10:55:01.167Z,1018.38
2016-09-18T10:55:26.725Z,1018.36
2016-09-18T10:55:52.279Z,1018.39
2016-09-18T10:56:17.854Z,1018.4
2016-09-18T10:56:43.449Z,1018.38
2016-09-18T10:57:09.023Z,1018.42
2016-09-18T10:57:34.621Z,1018.33
2016-09-18T10:58:00.390Z,1018.41
2016-09-18T10:58:25.969Z,1018.36
2016-09-18T10:58:51.533Z,1018.35
2016-09-18T10:59:17.068Z,1018.34
2016-09-18T10:59:42.650Z,1018.34
2016-09-18T11:00:08.285Z,1018.31
2016-09-18T11:00:33.948Z,1018.3
2016-09-18T11:00:59.508Z,1018.39
2016-09-18T11:01:25.122Z,1018.41
2016-09-18T11:01:50.815Z,1018.4
2016-09-18T11:02:16.441Z,1018.46
2016-09-18T11:04:12.606Z,1018.35
2016-09-18T11:04:38.185Z,1018.4
2016-09-18T11:05:03.740Z,1018.4
2016-09-18T11:05:29.327Z,1018.42
2016-09-18T11:05:54.936Z,1018.4
2016-09-18T11:06:20.489Z,1018.35
2016-09-18T11:06:46.046Z,1018.34
2016-09-18T11:07:11.643Z,1018.37
2016-09-18T11:07:38.601Z,1018.35
2016-09-18T11:08:04.181Z,1018.35
2016-09-18T11:08:29.746Z,1018.32
2016-09-18T11:08:55.323Z,1018.36
2016-09-18T11:09:20.907Z,1018.36
2016-09-18T11:09:46.463Z,1018.37
2016-09-18T11:10:12.022Z,1018.37
2016-09-18T11:10:37.612Z,1018.36
2016-09-18T11:11:03.535Z,1018.39
2016-09-18T11:11:28.789Z,1018.35
2016-09-18T11:11:54.333Z,1018.37
2016-09-18T11:12:20.848Z,1018.41
2016-09-18T11:12:46.017Z,1018.4
2016-09-18T11:13:11.564Z,1018.39
2016-09-18T11:13:37.252Z,1018.39
2016-09-18T11:14:02.800Z,1018.33
2016-09-18T11:14:28.374Z,1018.35
2016-09-18T11:14:53.938Z,1018.35
2016-09-18T11:15:19.574Z,1018.35
2016-09-18T11:15:45.196Z,1018.36
2016-09-18T11:16:10.771Z,1018.3
2016-09-18T11:16:36.335Z,1018.33
2016-09-18T11:17:01.908Z,1018.26
2016-09-18T11:18:20.474Z,1018.24
2016-09-18T11:18:46.041Z,1018.25
2016-09-18T11:19:11.602Z,1018.27
2016-09-18T11:19:37.170Z,1018.27
2016-09-18T11:20:02.717Z,1018.27
2016-09-18T11:20:28.317Z,1018.28
2016-09-18T11:20:53.887Z,1018.26
2016-09-18T11:21:19.438Z,1018.24
2016-09-18T11:21:45.047Z,1018.27
2016-09-18T11:22:10.646Z,1018.21
2016-09-18T11:22:36.211Z,1018.25
2016-09-18T11:23:01.872Z,1018.22
2016-09-18T11:23:27.435Z,1018.23
2016-09-18T11:23:53.027Z,1018.19
2016-09-18T11:24:18.617Z,1018.23
2016-09-18T11:24:44.301Z,1018.18
2016-09-18T11:25:09.858Z,1018.2
2016-09-18T11:25:35.458Z,1018.17
2016-09-18T11:26:01.054Z,1018.21
2016-09-18T11:26:26.642Z,1018.19
2016-09-18T11:26:52.211Z,1018.17
2016-09-18T11:28:10.824Z,1018.26
2016-09-18T11:28:36.465Z,1018.24
2016-09-18T11:29:02.027Z,1018.17
2016-09-18T11:29:27.594Z,1018.21
2016-09-18T11:29:53.167Z,1018.17
2016-09-18T11:30:18.759Z,1018.22
2016-09-18T11:30:44.380Z,1018.2
2016-09-18T11:31:09.951Z,1018.2
2016-09-18T11:31:35.555Z,1018.23
2016-09-18T11:32:01.119Z,1018.13
2016-09-18T11:32:26.663Z,1018.19
2016-09-18T11:32:52.249Z,1018.21
2016-09-18T11:33:17.924Z,1018.19
2016-09-18T11:33:43.471Z,1018.21
2016-09-18T11:34:09.045Z,1018.23
2016-09-18T11:34:34.631Z,1018.19
2016-09-18T11:35:00.236Z,1018.23
2016-09-18T11:36:18.853Z,1018.22
2016-09-18T11:36:44.432Z,1018.2
2016-09-18T11:37:10.015Z,1018.14
2016-09-18T11:37:35.609Z,1018.2
2016-09-18T11:38:01.163Z,1018.26
2016-09-18T11:38:26.728Z,1018.22
2016-09-18T11:38:52.311Z,1018.23
2016-09-18T11:39:17.875Z,1018.29
2016-09-18T11:39:43.461Z,1018.3
2016-09-18T11:40:09.082Z,1018.3
2016-09-18T11:40:34.618Z,1018.34
2016-09-18T11:41:00.183Z,1018.32
2016-09-18T11:41:25.775Z,1018.25
2016-09-18T11:41:51.349Z,1018.29
2016-09-18T11:42:16.927Z,1018.34
2016-09-18T11:42:42.480Z,1018.34
2016-09-18T11:43:08.053Z,1018.25
2016-09-18T11:43:33.612Z,1018.27
2016-09-18T11:43:59.203Z,1018.24
2016-09-18T11:44:24.795Z,1018.25
2016-09-18T11:44:50.342Z,1018.28
2016-09-18T11:45:16.023Z,1018.31
2016-09-18T11:46:19.077Z,1018.25
2016-09-18T11:46:44.681Z,1018.25
2016-09-18T11:47:10.300Z,1018.22
2016-09-18T11:48:13.478Z,1018.28
2016-09-18T11:48:39.128Z,1018.23
2016-09-18T11:49:04.666Z,1018.2
2016-09-18T11:49:30.233Z,1018.21
2016-09-18T11:49:55.880Z,1018.24
2016-09-18T11:50:21.519Z,1018.25
2016-09-18T11:50:47.072Z,1018.26
2016-09-18T11:51:12.625Z,1018.24
2016-09-18T11:51:38.228Z,1018.24
2016-09-18T11:52:03.787Z,1018.23
2016-09-18T11:52:29.351Z,1018.23
2016-09-18T11:52:54.910Z,1018.23
2016-09-18T11:53:20.501Z,1018.22
2016-09-18T11:55:11.564Z,1018.2
2016-09-18T11:55:37.115Z,1018.19
2016-09-18T11:56:02.780Z,1018.23
2016-09-18T11:56:28.282Z,1018.19
2016-09-18T11:56:53.899Z,1018.17
2016-09-18T11:57:19.487Z,1018.19
2016-09-18T11:57:45.020Z,1018.18
2016-09-18T11:58:10.583Z,1018.16
2016-09-18T11:58:36.283Z,1018.16
2016-09-18T11:59:01.842Z,1018.1
2016-09-18T11:59:27.410Z,1018.16
2016-09-18T11:59:53.053Z,1018.23
2016-09-18T12:00:18.614Z,1018.2
2016-09-18T12:01:21.810Z,1018.19
2016-09-18T12:01:47.375Z,1018.2
2016-09-18T12:02:12.938Z,1018.17
2016-09-18T12:02:38.554Z,1018.17
2016-09-18T12:03:04.120Z,1018.17
2016-09-18T12:03:29.741Z,1018.17
2016-09-18T12:03:55.437Z,1018.14
2016-09-18T12:04:21.161Z,1018.18
2016-09-18T12:04:46.776Z,1018.18
2016-09-18T12:05:12.334Z,1018.17
2016-09-18T12:05:37.887Z,1018.18
2016-09-18T12:06:03.452Z,1018.18
2016-09-18T12:06:29.066Z,1018.2
2016-09-18T12:06:54.620Z,1018.19
2016-09-18T12:07:20.182Z,1018.19
2016-09-18T12:07:45.777Z,1018.2
2016-09-18T12:08:11.365Z,1018.21
2016-09-18T12:09:14.593Z,1018.19
2016-09-18T12:09:40.178Z,1018.17
2016-09-18T12:10:05.740Z,1018.19
2016-09-18T12:10:31.402Z,1018.18
2016-09-18T12:10:57.063Z,1018.21
2016-09-18T12:11:22.666Z,1018.16
2016-09-18T12:11:48.277Z,1018.17
2016-09-18T12:12:13.839Z,1018.15
2016-09-18T12:12:39.401Z,1018.16
2016-09-18T12:13:05.057Z,1018.17
2016-09-18T12:13:30.618Z,1018.13
2016-09-18T12:13:56.231Z,1018.19
2016-09-18T12:14:21.797Z,1018.14
2016-09-18T12:14:47.458Z,1018.15
2016-09-18T12:15:12.988Z,1018.16
2016-09-18T12:15:38.559Z,1018.1
2016-09-18T12:16:04.163Z,1018.14
2016-09-18T12:16:29.745Z,1018.13
2016-09-18T12:16:55.373Z,1018.11
2016-09-18T12:17:20.953Z,1018.11
2016-09-18T12:17:46.564Z,1018.15
2016-09-18T12:18:12.188Z,1018.11
2016-09-18T12:18:37.752Z,1018.13
2016-09-18T12:19:03.335Z,1018.1
2016-09-18T12:19:28.896Z,1018.11
2016-09-18T12:19:54.454Z,1018.18
2016-09-18T12:20:20.047Z,1018.08
2016-09-18T12:20:45.638Z,1018.1
2016-09-18T12:21:11.204Z,1018.1
2016-09-18T12:21:37.062Z,1018.1
2016-09-18T12:22:02.670Z,1018.13
2016-09-18T12:22:28.233Z,1018.14
2016-09-18T12:22:53.880Z,1018.09
2016-09-18T12:23:19.461Z,1018.12
2016-09-18T12:23:45.034Z,1018.13
2016-09-18T12:24:10.613Z,1018.12
2016-09-18T12:24:36.229Z,1018.11
2016-09-18T12:25:01.794Z,1018.1
2016-09-18T12:25:27.345Z,1018.2
2016-09-18T12:25:52.917Z,1018.18
2016-09-18T12:26:18.475Z,1018.18
2016-09-18T12:26:44.061Z,1018.21
2016-09-18T12:27:09.635Z,1018.18
2016-09-18T12:27:35.219Z,1018.18
2016-09-18T12:28:00.799Z,1018.16
2016-09-18T12:28:26.386Z,1018.17
2016-09-18T12:28:51.928Z,1018.18
2016-09-18T12:29:17.495Z,1018.13
2016-09-18T12:29:43.057Z,1018.09
2016-09-18T12:30:08.603Z,1018.11
2016-09-18T12:30:34.186Z,1018.13
2016-09-18T12:30:59.735Z,1018.07
2016-09-18T12:31:25.271Z,1018.05
2016-09-18T12:31:50.847Z,1018.02
2016-09-18T12:32:16.403Z,1018.05
2016-09-18T12:32:41.984Z,1018.02
2016-09-18T12:33:07.582Z,1017.98
2016-09-18T12:33:33.120Z,1018
2016-09-18T12:33:58.696Z,1018
2016-09-18T12:34:24.260Z,1018
2016-09-18T12:34:49.824Z,1018.03
2016-09-18T12:35:15.397Z,1018.06
2016-09-18T12:35:40.979Z,1017.98
2016-09-18T12:36:06.554Z,1018.02
2016-09-18T12:37:19.953Z,1018.01
2016-09-18T12:37:45.550Z,1017.98
2016-09-18T12:38:11.183Z,1018
2016-09-18T12:38:36.756Z,1017.98
2016-09-18T12:39:02.386Z,1018.02
2016-09-18T12:39:27.944Z,1018.03
2016-09-18T12:39:53.491Z,1018
2016-09-18T12:40:19.057Z,1017.97
2016-09-18T12:40:44.645Z,1017.99
2016-09-18T12:41:10.241Z,1017.97
2016-09-18T12:41:35.823Z,1017.98
2016-09-18T12:42:01.403Z,1018.01
2016-09-18T12:42:26.986Z,1017.97
2016-09-18T12:42:52.561Z,1017.99
2016-09-18T12:43:18.119Z,1017.98
2016-09-18T12:43:43.661Z,1018.02
2016-09-18T12:44:09.215Z,1018.02
2016-09-18T12:45:17.585Z,1018.02
2016-09-18T12:45:43.121Z,1018.03
2016-09-18T12:46:08.687Z,1018.04
2016-09-18T12:46:34.268Z,1018.07
2016-09-18T12:46:59.871Z,1018.09
2016-09-18T12:48:13.306Z,1018.07
2016-09-18T12:48:38.855Z,1018.14
2016-09-18T12:49:04.418Z,1018.14
2016-09-18T12:49:29.993Z,1018.08
2016-09-18T12:49:55.546Z,1018.12
2016-09-18T12:50:21.130Z,1018.15
2016-09-18T12:50:46.746Z,1018.13
2016-09-18T12:51:12.314Z,1018.05
2016-09-18T12:51:37.973Z,1018.12
2016-09-18T12:52:03.527Z,1018.13
2016-09-18T12:52:29.125Z,1018.06
2016-09-18T12:52:54.716Z,1018.11
2016-09-18T12:53:20.285Z,1018.1
2016-09-18T12:53:45.865Z,1018.07
2016-09-18T12:54:11.405Z,1018.07
2016-09-18T12:54:36.970Z,1018.07
2016-09-18T12:55:02.535Z,1018.1
2016-09-18T12:55:28.101Z,1018.12
2016-09-18T12:55:53.672Z,1018.11
2016-09-18T12:56:19.251Z,1018.1
2016-09-18T12:56:44.803Z,1018.06
2016-09-18T12:57:10.347Z,1018.05
2016-09-18T12:57:35.954Z,1018.1
2016-09-18T12:58:01.507Z,1018.06
2016-09-18T12:58:27.180Z,1018.08
2016-09-18T12:58:52.729Z,1018.05
2016-09-18T12:59:18.296Z,1018.07
2016-09-18T12:59:43.888Z,1018.04
2016-09-18T13:00:09.508Z,1018.02
2016-09-18T13:00:35.085Z,1018.05
2016-09-18T13:01:00.659Z,1018.09
2016-09-18T13:01:26.309Z,1018.09
2016-09-18T13:01:51.877Z,1018.07
2016-09-18T13:02:17.450Z,1018.07
2016-09-18T13:02:42.982Z,1017.99
2016-09-18T13:03:08.659Z,1018
2016-09-18T13:03:34.232Z,1018
2016-09-18T13:03:59.804Z,1018.02
2016-09-18T13:04:26.334Z,1018.02
2016-09-18T13:04:51.947Z,1018.03
2016-09-18T13:05:17.612Z,1018
2016-09-18T13:05:43.192Z,1018.05
2016-09-18T13:06:08.764Z,1018.04
2016-09-18T13:06:34.340Z,1018
2016-09-18T13:06:59.932Z,1017.99
2016-09-18T13:07:25.502Z,1018
2016-09-18T13:07:51.042Z,1017.97
2016-09-18T13:08:16.624Z,1017.95
2016-09-18T13:08:42.215Z,1017.99
2016-09-18T13:09:07.796Z,1017.92
2016-09-18T13:09:33.383Z,1017.92
2016-09-18T13:09:58.968Z,1017.92
2016-09-18T13:10:24.531Z,1017.95
2016-09-18T13:10:50.146Z,1017.96
2016-09-18T13:11:15.684Z,1017.95
2016-09-18T13:11:41.257Z,1017.9
2016-09-18T13:12:06.844Z,1017.9
2016-09-18T13:12:32.400Z,1017.92
2016-09-18T13:12:57.982Z,1017.93
2016-09-18T13:14:16.609Z,1017.9
2016-09-18T13:14:42.168Z,1017.95
2016-09-18T13:15:07.774Z,1017.91
2016-09-18T13:16:21.166Z,1017.94
2016-09-18T13:16:46.791Z,1017.92
2016-09-18T13:17:12.656Z,1017.86
2016-09-18T13:17:38.202Z,1017.83
2016-09-18T13:18:03.769Z,1017.88
2016-09-18T13:18:29.955Z,1017.92
2016-09-18T13:18:55.604Z,1017.84
2016-09-18T13:19:21.247Z,1017.86
2016-09-18T13:19:46.920Z,1017.85
2016-09-18T13:20:12.503Z,1017.89
2016-09-18T13:20:38.048Z,1017.83
2016-09-18T13:21:03.612Z,1017.84
2016-09-18T13:21:29.175Z,1017.83
2016-09-18T13:21:54.728Z,1017.81
2016-09-18T13:22:20.299Z,1017.83
2016-09-18T13:22:45.870Z,1017.83
2016-09-18T13:23:11.437Z,1017.81
2016-09-18T13:23:37.003Z,1017.82
2016-09-18T13:24:02.605Z,1017.86
2016-09-18T13:24:28.160Z,1017.82
2016-09-18T13:24:53.674Z,1017.86
2016-09-18T13:25:19.244Z,1017.86
2016-09-18T13:25:44.804Z,1017.84
2016-09-18T13:26:10.377Z,1017.87
2016-09-18T13:26:35.947Z,1017.85
2016-09-18T13:27:01.574Z,1017.85
2016-09-18T13:27:27.150Z,1017.82
2016-09-18T13:27:52.695Z,1017.85
2016-09-18T13:28:18.254Z,1017.87
2016-09-18T13:28:43.890Z,1017.85
2016-09-18T13:29:09.563Z,1017.83
2016-09-18T13:29:35.180Z,1017.79
2016-09-18T13:30:00.780Z,1017.79
2016-09-18T13:30:26.333Z,1017.78
2016-09-18T13:30:51.901Z,1017.81
2016-09-18T13:31:17.436Z,1017.8
2016-09-18T13:31:43.314Z,1017.75
2016-09-18T13:32:08.919Z,1017.81
2016-09-18T13:32:34.489Z,1017.81
2016-09-18T13:33:00.129Z,1017.78
2016-09-18T13:33:25.594Z,1017.78
2016-09-18T13:33:51.195Z,1017.76
2016-09-18T13:34:16.768Z,1017.74
2016-09-18T13:34:42.353Z,1017.81
2016-09-18T13:35:07.907Z,1017.76
2016-09-18T13:35:33.521Z,1017.79
2016-09-18T13:35:59.117Z,1017.76
2016-09-18T13:36:24.693Z,1017.81
2016-09-18T13:36:50.268Z,1017.78
2016-09-18T13:37:16.070Z,1017.76
2016-09-18T13:37:41.621Z,1017.75
2016-09-18T13:38:07.321Z,1017.77
2016-09-18T13:38:32.891Z,1017.79
2016-09-18T13:38:58.471Z,1017.81
2016-09-18T13:39:24.082Z,1017.75
2016-09-18T13:39:49.655Z,1017.73
2016-09-18T13:40:15.239Z,1017.74
2016-09-18T13:40:40.797Z,1017.74
2016-09-18T13:41:06.427Z,1017.76
2016-09-18T13:41:32.004Z,1017.8
2016-09-18T13:41:57.575Z,1017.77
2016-09-18T13:42:23.151Z,1017.76
2016-09-18T13:42:48.756Z,1017.85
2016-09-18T13:43:14.337Z,1017.88
2016-09-18T13:43:39.918Z,1017.78
2016-09-18T13:44:05.565Z,1017.73
2016-09-18T13:44:31.119Z,1017.77
2016-09-18T13:44:56.716Z,1017.8
2016-09-18T13:45:22.257Z,1017.78
2016-09-18T13:45:47.824Z,1017.77
2016-09-18T13:46:13.368Z,1017.76
2016-09-18T13:46:38.949Z,1017.77
2016-09-18T13:47:04.518Z,1017.76
2016-09-18T13:47:30.073Z,1017.79
2016-09-18T13:47:55.618Z,1017.76
2016-09-18T13:48:21.200Z,1017.71
2016-09-18T13:48:46.778Z,1017.75
2016-09-18T13:49:12.351Z,1017.75
2016-09-18T13:49:37.933Z,1017.75
2016-09-18T13:50:03.514Z,1017.76
2016-09-18T13:50:29.113Z,1017.83
2016-09-18T13:50:54.658Z,1017.8
2016-09-18T13:51:20.223Z,1017.78
2016-09-18T13:51:45.855Z,1017.76
2016-09-18T13:52:11.408Z,1017.72
2016-09-18T13:52:37.055Z,1017.75
2016-09-18T13:53:02.640Z,1017.78
2016-09-18T13:53:28.288Z,1017.75